createdAt,value
2023-06-19T00:00:22.995Z,100106.22
2023-06-19T00:02:51.518Z,100108.94
2023-06-19T00:05:34.831Z,100113.03
2023-06-19T00:08:04.664Z,100110.19
2023-06-19T00:10:43.405Z,100108.00
2023-06-19T00:13:11.636Z,100121.34
2023-06-19T00:15:49.070Z,100112.00
2023-06-19T00:18:19.213Z,100121.88
2023-06-19T00:20:57.340Z,100119.13
2023-06-19T00:23:25.598Z,100114.97
2023-06-19T00:25:55.639Z,100106.25
2023-06-19T00:28:23.852Z,100112.47
2023-06-19T00:31:10.282Z,100110.06
2023-06-19T00:33:38.644Z,100105.84
2023-06-19T00:36:11.619Z,100103.75
2023-06-19T00:38:40.184Z,100099.56
2023-06-19T00:41:22.516Z,100099.56
2023-06-19T00:43:50.766Z,100093.34
2023-06-19T00:46:19.324Z,100093.97
2023-06-19T00:48:47.557Z,100094.59
2023-06-19T00:51:15.939Z,100095.53
2023-06-19T00:53:44.231Z,100093.56
2023-06-19T00:56:15.531Z,100090.25
2023-06-19T00:58:50.110Z,100086.38
2023-06-19T01:01:18.452Z,100089.22
2023-06-19T01:04:02.014Z,100093.09
2023-06-19T01:06:54.806Z,100094.03
2023-06-19T01:09:29.179Z,100098.44
2023-06-19T01:12:15.896Z,100096.88
2023-06-19T01:15:10.082Z,100102.00
2023-06-19T01:17:39.116Z,100102.22
2023-06-19T01:20:20.518Z,100090.25
2023-06-19T01:22:50.350Z,100089.44
2023-06-19T01:25:25.671Z,100093.09
2023-06-19T01:27:54.328Z,100103.72
2023-06-19T01:30:35.446Z,100106.41
2023-06-19T01:33:10.313Z,100109.78
2023-06-19T01:35:45.703Z,100108.09
2023-06-19T01:38:16.804Z,100111.44
2023-06-19T01:40:50.260Z,100111.34
2023-06-19T01:43:20.732Z,100122.69
2023-06-19T01:45:55.449Z,100107.66
2023-06-19T01:48:23.870Z,100112.28
2023-06-19T01:51:01.193Z,100105.19
2023-06-19T01:53:32.662Z,100101.94
2023-06-19T01:56:10.405Z,100100.13
2023-06-19T01:58:38.561Z,100100.56
2023-06-19T02:01:16.705Z,100107.13
2023-06-19T02:03:44.923Z,100104.09
2023-06-19T02:06:25.838Z,100106.28
2023-06-19T02:08:57.299Z,100099.25
2023-06-19T02:11:31.391Z,100104.41
2023-06-19T02:13:59.643Z,100106.63
2023-06-19T02:16:37.189Z,100112.69
2023-06-19T02:19:05.631Z,100111.13
2023-06-19T02:21:46.891Z,100104.94
2023-06-19T02:24:26.305Z,100106.63
2023-06-19T02:26:54.571Z,100119.19
2023-06-19T02:29:31.292Z,100111.00
2023-06-19T02:32:17.852Z,100108.88
2023-06-19T02:35:04.496Z,100100.19
2023-06-19T02:37:37.149Z,100100.50
2023-06-19T02:40:11.810Z,100098.81
2023-06-19T02:42:40.006Z,100081.63
2023-06-19T02:45:17.819Z,100083.53
2023-06-19T02:47:46.960Z,100083.75
2023-06-19T02:50:15.304Z,100079.66
2023-06-19T02:52:43.762Z,100079.97
2023-06-19T02:55:13.714Z,100079.22
2023-06-19T02:57:41.987Z,100086.47
2023-06-19T03:00:13.563Z,100078.75
2023-06-19T03:02:44.583Z,100081.75
2023-06-19T03:05:13.042Z,100087.13
2023-06-19T03:07:50.492Z,100082.97
2023-06-19T03:10:20.270Z,100085.78
2023-06-19T03:12:48.554Z,100087.78
2023-06-19T03:15:18.364Z,100089.88
2023-06-19T03:17:50.488Z,100084.84
2023-06-19T03:20:19.377Z,100076.50
2023-06-19T03:22:55.107Z,100076.72
2023-06-19T03:25:35.886Z,100076.88
2023-06-19T03:28:05.828Z,100084.97
2023-06-19T03:30:35.300Z,100091.16
2023-06-19T03:33:04.000Z,100092.09
2023-06-19T03:35:50.680Z,100089.69
2023-06-19T03:38:30.090Z,100085.53
2023-06-19T03:41:00.180Z,100091.59
2023-06-19T03:43:28.466Z,100085.53
2023-06-19T03:45:59.738Z,100084.69
2023-06-19T03:48:27.924Z,100090.63
2023-06-19T03:50:56.895Z,100089.91
2023-06-19T03:53:25.336Z,100096.94
2023-06-19T03:55:55.488Z,100090.97
2023-06-19T03:58:26.036Z,100090.97
2023-06-19T04:01:06.933Z,100090.13
2023-06-19T04:03:35.758Z,100092.84
2023-06-19T04:06:04.195Z,100082.34
2023-06-19T04:08:32.385Z,100088.44
2023-06-19T04:11:00.850Z,100089.38
2023-06-19T04:13:31.651Z,100092.97
2023-06-19T04:15:59.939Z,100093.97
2023-06-19T04:18:29.814Z,100099.34
2023-06-19T04:20:58.801Z,100095.16
2023-06-19T04:23:35.996Z,100097.88
2023-06-19T04:26:04.291Z,100103.81
2023-06-19T04:28:34.224Z,100101.84
2023-06-19T04:31:02.476Z,100107.94
2023-06-19T04:33:52.684Z,100104.16
2023-06-19T04:36:21.117Z,100102.88
2023-06-19T04:38:50.541Z,100106.88
2023-06-19T04:41:20.810Z,100107.53
2023-06-19T04:44:07.320Z,100106.03
2023-06-19T04:46:36.099Z,100101.91
2023-06-19T04:49:14.030Z,100105.78
2023-06-19T04:51:43.089Z,100107.03
2023-06-19T04:54:11.941Z,100095.41
2023-06-19T04:56:40.129Z,100096.88
2023-06-19T04:59:09.744Z,100094.56
2023-06-19T05:01:41.560Z,100095.94
2023-06-19T05:04:09.847Z,100094.41
2023-06-19T05:06:38.083Z,100103.41
2023-06-19T05:09:06.582Z,100108.84
2023-06-19T05:11:34.876Z,100097.06
2023-06-19T05:14:03.622Z,100102.69
2023-06-19T05:16:35.808Z,100109.19
2023-06-19T05:19:05.057Z,100102.53
2023-06-19T05:21:33.411Z,100106.81
2023-06-19T05:24:01.658Z,100106.38
2023-06-19T05:26:29.970Z,100108.44
2023-06-19T05:28:58.213Z,100107.34
2023-06-19T05:31:26.376Z,100106.69
2023-06-19T05:33:56.032Z,100099.09
2023-06-19T05:36:24.933Z,100101.16
2023-06-19T05:38:53.144Z,100104.53
2023-06-19T05:41:21.303Z,100103.84
2023-06-19T05:43:49.535Z,100104.09
2023-06-19T05:46:17.800Z,100107.81
2023-06-19T05:48:46.232Z,100105.19
2023-06-19T05:51:16.656Z,100102.34
2023-06-19T05:53:45.193Z,100104.84
2023-06-19T05:56:13.403Z,100098.72
2023-06-19T05:58:41.640Z,100102.72
2023-06-19T06:01:10.846Z,100098.88
2023-06-19T06:03:39.255Z,100092.22
2023-06-19T06:06:07.584Z,100093.63
2023-06-19T06:08:37.228Z,100089.38
2023-06-19T06:11:05.425Z,100083.44
2023-06-19T06:13:33.617Z,100083.19
2023-06-19T06:16:01.812Z,100083.44
2023-06-19T06:18:30.020Z,100084.16
2023-06-19T06:21:00.289Z,100086.41
2023-06-19T06:23:29.183Z,100104.06
2023-06-19T06:26:03.626Z,100102.84
2023-06-19T06:28:32.891Z,100095.09
2023-06-19T06:31:01.419Z,100107.78
2023-06-19T06:33:29.703Z,100102.47
2023-06-19T06:35:58.050Z,100101.63
2023-06-19T06:38:26.308Z,100096.88
2023-06-19T06:40:54.596Z,100096.69
2023-06-19T06:43:24.451Z,100102.00
2023-06-19T06:45:52.842Z,100091.25
2023-06-19T06:48:21.044Z,100091.47
2023-06-19T06:50:49.187Z,100092.22
2023-06-19T06:53:17.340Z,100089.91
2023-06-19T06:55:45.614Z,100099.41
2023-06-19T06:58:15.556Z,100100.78
2023-06-19T07:00:45.210Z,100109.59
2023-06-19T07:03:14.414Z,100106.78
2023-06-19T07:05:42.750Z,100117.00
2023-06-19T07:08:11.020Z,100117.31
2023-06-19T07:10:39.153Z,100119.53
2023-06-19T07:13:07.288Z,100115.91
2023-06-19T07:15:35.411Z,100124.50
2023-06-19T07:18:05.499Z,100120.72
2023-06-19T07:20:33.658Z,100131.91
2023-06-19T07:23:02.577Z,100121.81
2023-06-19T07:25:31.072Z,100136.84
2023-06-19T07:27:59.327Z,100134.84
2023-06-19T07:30:27.580Z,100133.25
2023-06-19T07:32:56.965Z,100139.38
2023-06-19T07:35:29.530Z,100142.75
2023-06-19T07:37:59.128Z,100140.25
2023-06-19T07:40:27.645Z,100152.63
2023-06-19T07:42:55.958Z,100152.38
2023-06-19T07:45:24.900Z,100137.44
2023-06-19T07:47:57.328Z,100140.56
2023-06-19T07:50:30.377Z,100145.09
2023-06-19T07:52:58.771Z,100148.69
2023-06-19T07:55:29.764Z,100142.06
2023-06-19T07:58:00.731Z,100140.25
2023-06-19T08:00:41.107Z,100151.25
2023-06-19T08:03:09.397Z,100140.59
2023-06-19T08:05:47.761Z,100135.44
2023-06-19T08:08:15.962Z,100136.75
2023-06-19T08:10:55.962Z,100129.38
2023-06-19T08:13:24.699Z,100121.69
2023-06-19T08:16:04.619Z,100129.44
2023-06-19T08:18:32.933Z,100127.78
2023-06-19T08:21:08.752Z,100136.00
2023-06-19T08:23:36.872Z,100134.47
2023-06-19T08:26:05.038Z,100138.31
2023-06-19T08:28:33.569Z,100126.13
2023-06-19T08:31:02.024Z,100142.13
2023-06-19T08:33:30.665Z,100130.72
2023-06-19T08:35:59.082Z,100132.97
2023-06-19T08:38:34.923Z,100148.66
2023-06-19T08:41:03.332Z,100141.59
2023-06-19T08:43:31.533Z,100143.84
2023-06-19T08:46:10.059Z,100133.72
2023-06-19T08:48:51.087Z,100135.31
2023-06-19T08:51:19.447Z,100139.81
2023-06-19T08:53:52.058Z,100136.75
2023-06-19T08:56:20.418Z,100134.75
2023-06-19T08:58:48.739Z,100145.16
2023-06-19T09:01:20.644Z,100135.75
2023-06-19T09:03:53.628Z,100126.19
2023-06-19T09:06:22.825Z,100118.44
2023-06-19T09:09:01.596Z,100114.81
2023-06-19T09:11:31.082Z,100111.69
2023-06-19T09:13:59.966Z,100106.66
2023-06-19T09:16:39.033Z,100116.53
2023-06-19T09:19:07.233Z,100116.19
2023-06-19T09:21:38.267Z,100119.34
2023-06-19T09:24:09.918Z,100117.50
2023-06-19T09:26:42.094Z,100118.41
2023-06-19T09:29:15.958Z,100104.91
2023-06-19T09:31:51.658Z,100110.41
2023-06-19T09:34:19.848Z,100110.59
2023-06-19T09:36:56.986Z,100104.53
2023-06-19T09:39:30.588Z,100107.84
2023-06-19T09:42:06.217Z,100115.19
2023-06-19T09:44:46.304Z,100112.25
2023-06-19T09:47:19.782Z,100108.94
2023-06-19T09:50:16.929Z,100114.69
2023-06-19T09:53:20.194Z,100109.16
2023-06-19T09:56:25.564Z,100103.88
2023-06-19T09:59:28.918Z,100106.56
2023-06-19T10:02:34.574Z,100106.22
2023-06-19T10:05:38.526Z,100108.88
2023-06-19T10:08:41.453Z,100108.91
2023-06-19T10:11:45.210Z,100111.59
2023-06-19T10:14:51.794Z,100104.59
2023-06-19T10:17:54.034Z,100102.13
2023-06-19T10:21:00.190Z,100111.25
2023-06-19T10:23:30.097Z,100108.97
2023-06-19T10:26:08.490Z,100109.97
2023-06-19T10:28:38.775Z,100107.44
2023-06-19T10:31:13.221Z,100098.97
2023-06-19T10:33:42.118Z,100094.03
2023-06-19T10:36:20.903Z,100098.34
2023-06-19T10:38:49.366Z,100095.34
2023-06-19T10:41:27.715Z,100090.03
2023-06-19T10:43:59.652Z,100094.31
2023-06-19T10:46:38.452Z,100090.09
2023-06-19T10:49:11.878Z,100087.53
2023-06-19T10:51:44.943Z,100092.97
2023-06-19T10:54:13.206Z,100099.97
2023-06-19T10:56:52.416Z,100095.66
2023-06-19T10:59:22.215Z,100092.81
2023-06-19T11:01:56.525Z,100079.69
2023-06-19T11:04:26.520Z,100078.72
2023-06-19T11:07:08.169Z,100069.00
2023-06-19T11:09:36.317Z,100071.19
2023-06-19T11:12:11.753Z,100075.69
2023-06-19T11:14:43.630Z,100075.56
2023-06-19T11:17:19.637Z,100065.41
2023-06-19T11:19:48.093Z,100064.91
2023-06-19T11:22:25.056Z,100076.38
2023-06-19T11:24:53.390Z,100069.16
2023-06-19T11:27:33.675Z,100063.88
2023-06-19T11:30:38.265Z,100059.59
2023-06-19T11:33:38.523Z,100059.09
2023-06-19T11:36:07.606Z,100060.59
2023-06-19T11:38:48.475Z,100055.28
2023-06-19T11:41:54.763Z,100050.94
2023-06-19T11:44:30.151Z,100045.28
2023-06-19T11:47:20.880Z,100049.16
2023-06-19T11:50:05.082Z,100046.00
2023-06-19T11:55:27.905Z,100058.09
2023-06-19T11:58:05.239Z,100053.25
2023-06-19T12:00:33.434Z,100063.09
2023-06-19T12:03:03.954Z,100057.44
2023-06-19T12:05:32.197Z,100050.78
2023-06-19T12:08:03.475Z,100053.59
2023-06-19T12:10:35.804Z,100043.13
2023-06-19T12:13:04.239Z,100045.94
2023-06-19T12:15:38.124Z,100042.94
2023-06-19T12:18:08.996Z,100040.22
2023-06-19T12:20:49.131Z,100039.25
2023-06-19T12:23:17.383Z,100037.66
2023-06-19T12:25:48.584Z,100039.13
2023-06-19T12:28:19.793Z,100034.16
2023-06-19T12:30:49.492Z,100032.34
2023-06-19T12:33:19.943Z,100033.81
2023-06-19T12:35:48.224Z,100023.47
2023-06-19T12:38:16.487Z,100025.00
2023-06-19T12:40:44.715Z,100022.50
2023-06-19T12:43:13.026Z,100018.00
2023-06-19T12:45:42.382Z,100019.81
2023-06-19T12:48:12.678Z,100009.97
2023-06-19T12:50:42.937Z,100014.31
2023-06-19T12:53:12.759Z,100011.06
2023-06-19T12:55:52.543Z,100003.41
2023-06-19T12:58:28.768Z,100013.97
2023-06-19T13:00:57.449Z,100006.53
2023-06-19T13:03:25.777Z,100016.81
2023-06-19T13:05:56.398Z,100018.81
2023-06-19T13:08:25.672Z,100013.41
2023-06-19T13:10:54.400Z,100012.69
2023-06-19T13:13:23.054Z,100007.97
2023-06-19T13:15:51.364Z,100007.72
2023-06-19T13:18:20.756Z,100008.38
2023-06-19T13:20:50.392Z,100004.25
2023-06-19T13:23:20.118Z,100011.41
2023-06-19T13:25:48.290Z,100012.34
2023-06-19T13:28:16.995Z,100009.91
2023-06-19T13:30:45.412Z,100007.09
2023-06-19T13:33:13.638Z,100009.75
2023-06-19T13:35:41.803Z,100005.66
2023-06-19T13:38:10.841Z,100014.75
2023-06-19T13:40:40.890Z,99996.53
2023-06-19T13:43:09.068Z,99998.41
2023-06-19T13:45:39.689Z,99999.31
2023-06-19T13:48:08.304Z,99991.81
2023-06-19T13:50:36.617Z,99992.88
2023-06-19T13:53:04.842Z,99980.84
2023-06-19T13:55:33.128Z,99990.13
2023-06-19T13:58:03.149Z,99984.34
2023-06-19T14:00:31.994Z,99980.13
2023-06-19T14:03:00.208Z,99978.06
2023-06-19T14:05:28.558Z,99978.13
2023-06-19T14:07:57.280Z,99980.34
2023-06-19T14:10:26.024Z,99979.38
2023-06-19T14:12:54.596Z,99972.09
2023-06-19T14:15:24.644Z,99977.63
2023-06-19T14:17:53.122Z,99971.16
2023-06-19T14:20:21.836Z,99968.13
2023-06-19T14:22:50.203Z,99968.31
2023-06-19T14:25:18.509Z,99962.13
2023-06-19T14:27:47.241Z,99972.19
2023-06-19T14:30:15.841Z,99972.34
2023-06-19T14:32:45.829Z,99976.00
2023-06-19T14:35:14.100Z,99968.69
2023-06-19T14:37:42.385Z,99982.41
2023-06-19T14:40:11.674Z,99979.06
2023-06-19T14:42:40.152Z,99979.53
2023-06-19T14:45:09.761Z,99971.97
2023-06-19T14:47:38.946Z,99964.19
2023-06-19T14:50:10.711Z,99963.56
2023-06-19T14:52:38.750Z,99972.81
2023-06-19T14:55:08.022Z,99970.03
2023-06-19T14:57:36.303Z,99974.66
2023-06-19T15:00:06.813Z,99981.03
2023-06-19T15:02:39.090Z,99976.13
2023-06-19T15:05:11.600Z,99978.38
2023-06-19T15:07:40.275Z,99972.53
2023-06-19T15:10:09.152Z,99972.38
2023-06-19T15:12:37.460Z,99965.50
2023-06-19T15:15:06.822Z,99959.28
2023-06-19T15:17:36.149Z,99952.41
2023-06-19T15:20:04.816Z,99952.56
2023-06-19T15:22:34.669Z,99956.41
2023-06-19T15:25:02.877Z,99948.59
2023-06-19T15:27:31.288Z,99947.38
2023-06-19T15:29:59.992Z,99952.19
2023-06-19T15:32:28.185Z,99953.97
2023-06-19T15:34:56.542Z,99954.88
2023-06-19T15:37:24.828Z,99957.91
2023-06-19T15:39:56.060Z,99951.75
2023-06-19T15:42:24.466Z,99949.78
2023-06-19T15:44:52.721Z,99943.75
2023-06-19T15:47:20.908Z,99947.78
2023-06-19T15:49:49.183Z,99947.28
2023-06-19T15:52:17.318Z,99953.94
2023-06-19T15:54:47.109Z,99953.09
2023-06-19T15:57:17.286Z,99953.44
2023-06-19T15:59:49.207Z,99950.13
2023-06-19T16:02:17.491Z,99949.78
2023-06-19T16:04:46.015Z,99948.78
2023-06-19T16:07:14.864Z,99954.41
2023-06-19T16:09:54.349Z,99957.75
2023-06-19T16:12:25.283Z,99946.78
2023-06-19T16:14:53.867Z,99952.94
2023-06-19T16:17:22.083Z,99952.78
2023-06-19T16:19:50.320Z,99942.81
2023-06-19T16:22:21.814Z,99941.94
2023-06-19T16:24:50.210Z,99950.41
2023-06-19T16:27:18.699Z,99934.81
2023-06-19T16:29:48.498Z,99931.16
2023-06-19T16:32:16.991Z,99930.16
2023-06-19T16:34:45.615Z,99933.16
2023-06-19T16:37:13.787Z,99942.13
2023-06-19T16:39:41.954Z,99941.16
2023-06-19T16:42:10.483Z,99936.16
2023-06-19T16:44:38.611Z,99939.94
2023-06-19T16:47:09.080Z,99933.97
2023-06-19T16:49:37.294Z,99931.81
2023-06-19T16:52:05.725Z,99930.28
2023-06-19T16:54:33.902Z,99925.81
2023-06-19T16:57:02.226Z,99925.97
2023-06-19T16:59:30.461Z,99920.28
2023-06-19T17:01:58.793Z,99922.06
2023-06-19T17:04:28.462Z,99928.94
2023-06-19T17:06:58.875Z,99924.38
2023-06-19T17:09:27.724Z,99928.78
2023-06-19T17:11:56.040Z,99919.34
2023-06-19T17:14:24.333Z,99923.75
2023-06-19T17:16:53.110Z,99931.50
2023-06-19T17:19:21.532Z,99924.31
2023-06-19T17:21:51.357Z,99925.16
2023-06-19T17:24:19.636Z,99922.94
2023-06-19T17:26:48.050Z,99922.38
2023-06-19T17:29:16.301Z,99925.97
2023-06-19T17:31:44.603Z,99934.13
2023-06-19T17:34:13.092Z,99928.78
2023-06-19T17:36:41.462Z,99932.94
2023-06-19T17:39:11.702Z,99930.13
2023-06-19T17:41:40.253Z,99934.81
2023-06-19T17:44:08.676Z,99927.78
2023-06-19T17:46:37.680Z,99930.28
2023-06-19T17:49:06.249Z,99935.25
2023-06-19T17:51:34.633Z,99937.06
2023-06-19T17:54:05.750Z,99934.44
2023-06-19T17:56:41.812Z,99932.31
2023-06-19T17:59:10.103Z,99931.44
2023-06-19T18:01:38.555Z,99937.09
2023-06-19T18:04:07.032Z,99940.16
2023-06-19T18:06:35.342Z,99935.19
2023-06-19T18:09:06.422Z,99937.25
2023-06-19T18:11:35.573Z,99936.19
2023-06-19T18:14:05.530Z,99939.72
2023-06-19T18:16:36.794Z,99944.09
2023-06-19T18:19:07.836Z,99942.84
2023-06-19T18:21:36.010Z,99951.38
2023-06-19T18:24:05.498Z,99944.03
2023-06-19T18:26:34.015Z,99946.19
2023-06-19T18:29:04.135Z,99951.09
2023-06-19T18:31:36.773Z,99946.81
2023-06-19T18:34:05.394Z,99954.78
2023-06-19T18:36:34.187Z,99948.88
2023-06-19T18:55:55.801Z,99959.13
2023-06-19T19:03:13.121Z,99964.13
2023-06-19T19:10:40.885Z,99967.56
2023-06-19T19:13:12.295Z,99968.66
2023-06-19T19:15:40.543Z,99956.59
2023-06-19T19:18:09.913Z,99954.06
2023-06-19T19:20:38.054Z,99962.94
2023-06-19T19:23:06.218Z,99959.63
2023-06-19T19:25:35.699Z,99957.53
2023-06-19T19:28:03.874Z,99949.19
2023-06-19T19:30:52.041Z,99945.03
2023-06-19T19:33:20.393Z,99948.06
2023-06-19T19:35:57.423Z,99946.53
2023-06-19T19:38:25.709Z,99945.59
2023-06-19T19:40:55.244Z,99943.91
2023-06-19T19:43:23.400Z,99943.22
2023-06-19T19:45:51.601Z,99932.94
2023-06-19T19:48:21.455Z,99935.72
2023-06-19T19:50:49.664Z,99942.50
2023-06-19T19:53:17.848Z,99935.44
2023-06-19T19:55:45.990Z,99942.94
2023-06-19T19:58:15.590Z,99948.75
2023-06-19T20:00:49.824Z,99943.88
2023-06-19T20:03:18.177Z,99942.34
2023-06-19T20:05:46.393Z,99942.19
2023-06-19T20:08:14.682Z,99942.06
2023-06-19T20:10:49.060Z,99939.72
2023-06-19T20:13:18.682Z,99936.34
2023-06-19T20:15:48.024Z,99934.72
2023-06-19T20:18:25.234Z,99934.16
2023-06-19T20:20:54.759Z,99930.06
2023-06-19T20:23:22.928Z,99934.66
2023-06-19T20:25:51.582Z,99943.53
2023-06-19T20:28:21.331Z,99925.91
2023-06-19T20:30:49.607Z,99933.81
2023-06-19T20:33:17.813Z,99932.72
2023-06-19T20:35:47.930Z,99933.31
2023-06-19T20:38:23.946Z,99933.88
2023-06-19T20:40:52.073Z,99933.72
2023-06-19T20:43:21.643Z,99927.38
2023-06-19T20:45:49.908Z,99933.31
2023-06-19T20:48:18.099Z,99940.13
2023-06-19T20:50:46.264Z,99929.47
2023-06-19T20:53:14.500Z,99936.41
2023-06-19T20:55:42.601Z,99925.28
2023-06-19T20:58:12.065Z,99933.59
2023-06-19T21:01:00.021Z,99927.16
2023-06-19T21:03:31.639Z,99931.88
2023-06-19T21:06:00.840Z,99925.19
2023-06-19T21:08:32.234Z,99918.66
2023-06-19T21:11:12.612Z,99919.50
2023-06-19T21:14:17.589Z,99919.31
2023-06-19T21:16:47.345Z,99916.41
2023-06-19T21:19:15.616Z,99922.41
2023-06-19T21:21:43.756Z,99918.56
2023-06-19T21:24:11.950Z,99917.25
2023-06-19T21:26:40.094Z,99910.16
2023-06-19T21:29:08.382Z,99909.75
2023-06-19T21:31:36.535Z,99906.66
2023-06-19T21:34:06.209Z,99907.03
2023-06-19T21:36:34.407Z,99901.22
2023-06-19T21:39:02.643Z,99896.22
2023-06-19T21:41:30.863Z,99898.16
2023-06-19T21:43:59.719Z,99899.09
2023-06-19T21:46:27.941Z,99895.53
2023-06-19T21:48:56.199Z,99896.63
2023-06-19T21:51:25.845Z,99895.09
2023-06-19T21:53:54.278Z,99894.53
2023-06-19T21:56:22.386Z,99891.31
2023-06-19T21:58:50.564Z,99887.28
2023-06-19T22:01:18.703Z,99880.22
2023-06-19T22:03:46.992Z,99873.41
2023-06-19T22:06:15.483Z,99874.75
2023-06-19T22:08:45.083Z,99863.03
2023-06-19T22:11:13.328Z,99869.69
2023-06-19T22:13:41.619Z,99863.72
2023-06-19T22:16:10.082Z,99864.69
2023-06-19T22:18:38.427Z,99869.25
2023-06-19T22:21:06.640Z,99870.22
2023-06-19T22:23:35.620Z,99858.00
2023-06-19T22:26:05.134Z,99857.75
2023-06-19T22:28:33.363Z,99858.47
2023-06-19T22:31:01.556Z,99849.47
2023-06-19T22:33:29.871Z,99842.41
2023-06-19T22:35:58.024Z,99840.47
2023-06-19T22:38:26.292Z,99839.50
2023-06-19T22:40:55.295Z,99835.19
2023-06-19T22:43:25.015Z,99841.41
2023-06-19T22:45:53.207Z,99831.16
2023-06-19T22:48:30.419Z,99838.63
2023-06-19T22:50:59.324Z,99829.38
2023-06-19T22:53:27.472Z,99814.25
2023-06-19T22:55:55.696Z,99816.59
2023-06-19T22:58:25.469Z,99812.81
2023-06-19T23:00:54.326Z,99813.91
2023-06-19T23:03:22.706Z,99817.22
2023-06-19T23:05:54.693Z,99811.81
2023-06-19T23:08:23.642Z,99807.97
2023-06-19T23:11:01.022Z,99810.34
2023-06-19T23:13:30.600Z,99812.00
2023-06-19T23:15:58.784Z,99812.00
2023-06-19T23:18:27.024Z,99813.81
2023-06-19T23:20:55.261Z,99806.91
2023-06-19T23:23:23.554Z,99802.72
2023-06-19T23:25:52.749Z,99800.47
2023-06-19T23:28:21.012Z,99800.88
2023-06-19T23:30:53.604Z,99803.19
2023-06-19T23:33:22.375Z,99795.66
2023-06-19T23:35:50.566Z,99793.03
2023-06-19T23:38:19.042Z,99790.41
2023-06-19T23:40:47.280Z,99782.78
2023-06-19T23:43:15.930Z,99786.06
2023-06-19T23:45:44.146Z,99789.31
2023-06-19T23:48:13.898Z,99791.47
2023-06-19T23:50:42.091Z,99787.47
2023-06-19T23:53:10.259Z,99788.75
2023-06-19T23:55:38.469Z,99797.13
2023-06-19T23:58:06.623Z,99790.47
